sensor_id;sensor_type;location;lat;lon;timestamp;pressure;altitude;pressure_sealevel;temperature;humidity
14800;BME280;7491;57.750;11.970;2023-09-19T00:00:56;73439.28;;;-142.11;100.00
14800;BME280;7491;57.750;11.970;2023-09-19T00:03:22;73425.00;;;-142.11;100.00
14800;BME280;7491;57.750;11.970;2023-09-19T00:05:51;73433.16;;;-142.11;100.00
14800;BME280;7491;57.750;11.970;2023-09-19T00:08:18;73414.81;;;-142.11;100.00
14800;BME280;7491;57.750;11.970;2023-09-19T00:10:48;73416.88;;;-142.11;100.00
14800;BME280;7491;57.750;11.970;2023-09-19T00:13:15;73414.81;;;-142.11;100.00
14800;BME280;7491;57.750;11.970;2023-09-19T00:15:43;73408.72;;;-142.11;100.00
14800;BME280;7491;57.750;11.970;2023-09-19T00:18:14;73422.97;;;-142.11;100.00
14800;BME280;7491;57.750;11.970;2023-09-19T00:20:41;73404.66;;;-142.11;100.00
14800;BME280;7491;57.750;11.970;2023-09-19T00:23:09;73414.81;;;-142.11;100.00
14800;BME280;7491;57.750;11.970;2023-09-19T00:25:36;73394.47;;;-142.11;100.00
14800;BME280;7491;57.750;11.970;2023-09-19T00:28:07;73418.91;;;-142.11;100.00
14800;BME280;7491;57.750;11.970;2023-09-19T00:30:35;73425.00;;;-142.11;100.00
14800;BME280;7491;57.750;11.970;2023-09-19T00:33:04;73431.13;;;-142.11;100.00
14800;BME280;7491;57.750;11.970;2023-09-19T00:35:32;73420.94;;;-142.11;100.00
14800;BME280;7491;57.750;11.970;2023-09-19T00:37:59;73398.53;;;-142.11;100.00
14800;BME280;7491;57.750;11.970;2023-09-19T00:40:27;73408.72;;;-142.11;100.00
14800;BME280;7491;57.750;11.970;2023-09-19T00:42:57;73406.69;;;-142.11;100.00
14800;BME280;7491;57.750;11.970;2023-09-19T00:45:25;73408.72;;;-142.11;100.00
14800;BME280;7491;57.750;11.970;2023-09-19T00:47:53;73402.59;;;-142.11;100.00
14800;BME280;7491;57.750;11.970;2023-09-19T00:50:22;73402.59;;;-142.11;100.00
14800;BME280;7491;57.750;11.970;2023-09-19T00:52:53;73404.66;;;-142.11;100.00
14800;BME280;7491;57.750;11.970;2023-09-19T00:55:21;73392.41;;;-142.11;100.00
14800;BME280;7491;57.750;11.970;2023-09-19T00:57:49;73394.47;;;-142.11;100.00
14800;BME280;7491;57.750;11.970;2023-09-19T01:00:16;73394.47;;;-142.11;100.00
14800;BME280;7491;57.750;11.970;2023-09-19T01:02:45;73396.50;;;-142.11;100.00
14800;BME280;7491;57.750;11.970;2023-09-19T01:05:12;73390.38;;;-142.11;100.00
14800;BME280;7491;57.750;11.970;2023-09-19T01:07:39;73396.50;;;-142.11;100.00
14800;BME280;7491;57.750;11.970;2023-09-19T01:10:08;73384.28;;;-142.11;100.00
14800;BME280;7491;57.750;11.970;2023-09-19T01:12:46;73400.56;;;-142.11;100.00
14800;BME280;7491;57.750;11.970;2023-09-19T01:15:21;73400.56;;;-142.11;100.00
14800;BME280;7491;57.750;11.970;2023-09-19T01:17:57;73404.66;;;-142.11;100.00
14800;BME280;7491;57.750;11.970;2023-09-19T01:20:33;73394.47;;;-142.11;100.00
14800;BME280;7491;57.750;11.970;2023-09-19T01:23:11;73380.19;;;-142.11;100.00
14800;BME280;7491;57.750;11.970;2023-09-19T01:25:58;73378.16;;;-142.11;100.00
14800;BME280;7491;57.750;11.970;2023-09-19T01:28:32;73365.94;;;-142.11;100.00
14800;BME280;7491;57.750;11.970;2023-09-19T01:31:04;73365.94;;;-142.11;100.00
14800;BME280;7491;57.750;11.970;2023-09-19T01:33:59;73353.72;;;-142.11;100.00
14800;BME280;7491;57.750;11.970;2023-09-19T01:36:28;73355.75;;;-142.11;100.00
14800;BME280;7491;57.750;11.970;2023-09-19T01:38:57;73355.75;;;-142.11;100.00
14800;BME280;7491;57.750;11.970;2023-09-19T01:41:41;73363.91;;;-142.11;100.00
14800;BME280;7491;57.750;11.970;2023-09-19T01:44:17;73355.75;;;-142.11;100.00
14800;BME280;7491;57.750;11.970;2023-09-19T01:46:49;73351.69;;;-142.11;100.00
14800;BME280;7491;57.750;11.970;2023-09-19T01:49:25;73351.69;;;-142.11;100.00
14800;BME280;7491;57.750;11.970;2023-09-19T01:52:04;73339.47;;;-142.11;100.00
14800;BME280;7491;57.750;11.970;2023-09-19T01:54:34;73341.50;;;-142.11;100.00
14800;BME280;7491;57.750;11.970;2023-09-19T01:57:09;73343.53;;;-142.11;100.00
14800;BME280;7491;57.750;11.970;2023-09-19T01:59:48;73349.66;;;-142.11;100.00
14800;BME280;7491;57.750;11.970;2023-09-19T02:02:17;73341.50;;;-142.11;100.00
14800;BME280;7491;57.750;11.970;2023-09-19T02:04:47;73333.34;;;-142.11;100.00
14800;BME280;7491;57.750;11.970;2023-09-19T02:07:16;73333.34;;;-142.11;100.00
14800;BME280;7491;57.750;11.970;2023-09-19T02:09:43;73317.06;;;-142.11;100.00
14800;BME280;7491;57.750;11.970;2023-09-19T02:12:10;73319.09;;;-142.11;100.00
14800;BME280;7491;57.750;11.970;2023-09-19T02:14:36;73329.28;;;-142.11;100.00
14800;BME280;7491;57.750;11.970;2023-09-19T02:17:03;73310.94;;;-142.11;100.00
14800;BME280;7491;57.750;11.970;2023-09-19T02:19:33;73310.94;;;-142.11;100.00
14800;BME280;7491;57.750;11.970;2023-09-19T02:22:00;73298.72;;;-142.11;100.00
14800;BME280;7491;57.750;11.970;2023-09-19T02:24:28;73282.44;;;-142.11;100.00
14800;BME280;7491;57.750;11.970;2023-09-19T02:26:55;73284.47;;;-142.11;100.00
14800;BME280;7491;57.750;11.970;2023-09-19T02:29:22;73290.59;;;-142.11;100.00
14800;BME280;7491;57.750;11.970;2023-09-19T02:31:50;73274.28;;;-142.11;100.00
14800;BME280;7491;57.750;11.970;2023-09-19T02:34:16;73274.28;;;-142.11;100.00
14800;BME280;7491;57.750;11.970;2023-09-19T02:36:45;73282.44;;;-142.11;100.00
14800;BME280;7491;57.750;11.970;2023-09-19T02:39:12;73270.22;;;-142.11;100.00
14800;BME280;7491;57.750;11.970;2023-09-19T02:41:39;73260.03;;;-142.11;100.00
14800;BME280;7491;57.750;11.970;2023-09-19T02:44:07;73262.06;;;-142.11;100.00
14800;BME280;7491;57.750;11.970;2023-09-19T02:46:34;73255.97;;;-142.11;100.00
14800;BME280;7491;57.750;11.970;2023-09-19T02:49:02;73235.59;;;-142.11;100.00
14800;BME280;7491;57.750;11.970;2023-09-19T02:51:30;73241.69;;;-142.11;100.00
14800;BME280;7491;57.750;11.970;2023-09-19T02:53:59;73266.13;;;-142.11;100.00
14800;BME280;7491;57.750;11.970;2023-09-19T02:56:25;73255.97;;;-142.11;100.00
14800;BME280;7491;57.750;11.970;2023-09-19T02:58:53;73247.81;;;-142.11;100.00
14800;BME280;7491;57.750;11.970;2023-09-19T03:01:20;73237.63;;;-142.11;100.00
14800;BME280;7491;57.750;11.970;2023-09-19T03:03:47;73237.63;;;-142.11;100.00
14800;BME280;7491;57.750;11.970;2023-09-19T03:06:14;73253.91;;;-142.11;100.00
14800;BME280;7491;57.750;11.970;2023-09-19T03:08:45;73243.72;;;-142.11;100.00
14800;BME280;7491;57.750;11.970;2023-09-19T03:11:16;73255.97;;;-142.11;100.00
14800;BME280;7491;57.750;11.970;2023-09-19T03:13:50;73235.59;;;-142.11;100.00
14800;BME280;7491;57.750;11.970;2023-09-19T03:16:17;73231.50;;;-142.11;100.00
14800;BME280;7491;57.750;11.970;2023-09-19T03:18:47;73215.22;;;-142.11;100.00
14800;BME280;7491;57.750;11.970;2023-09-19T03:21:14;73235.59;;;-142.11;100.00
14800;BME280;7491;57.750;11.970;2023-09-19T03:23:41;73243.72;;;-142.11;100.00
14800;BME280;7491;57.750;11.970;2023-09-19T03:26:11;73247.81;;;-142.11;100.00
14800;BME280;7491;57.750;11.970;2023-09-19T03:28:39;73227.44;;;-142.11;100.00
14800;BME280;7491;57.750;11.970;2023-09-19T03:31:06;73229.47;;;-142.11;100.00
14800;BME280;7491;57.750;11.970;2023-09-19T03:33:33;73245.78;;;-142.11;100.00
14800;BME280;7491;57.750;11.970;2023-09-19T03:36:01;73229.47;;;-142.11;100.00
14800;BME280;7491;57.750;11.970;2023-09-19T03:38:30;73217.25;;;-142.11;100.00
14800;BME280;7491;57.750;11.970;2023-09-19T03:40:57;73233.56;;;-142.11;100.00
14800;BME280;7491;57.750;11.970;2023-09-19T03:43:24;73207.06;;;-142.11;100.00
14800;BME280;7491;57.750;11.970;2023-09-19T03:45:52;73215.22;;;-142.11;100.00
14800;BME280;7491;57.750;11.970;2023-09-19T03:48:20;73229.47;;;-142.11;100.00
14800;BME280;7491;57.750;11.970;2023-09-19T03:50:48;73227.44;;;-142.11;100.00
14800;BME280;7491;57.750;11.970;2023-09-19T03:53:15;73247.81;;;-142.11;100.00
14800;BME280;7491;57.750;11.970;2023-09-19T03:55:44;73241.69;;;-142.11;100.00
14800;BME280;7491;57.750;11.970;2023-09-19T03:58:11;73245.78;;;-142.11;100.00
14800;BME280;7491;57.750;11.970;2023-09-19T04:00:38;73247.81;;;-142.11;100.00
14800;BME280;7491;57.750;11.970;2023-09-19T04:03:07;73239.66;;;-142.11;100.00
14800;BME280;7491;57.750;11.970;2023-09-19T04:05:36;73241.69;;;-142.11;100.00
14800;BME280;7491;57.750;11.970;2023-09-19T04:08:03;73239.66;;;-142.11;100.00
14800;BME280;7491;57.750;11.970;2023-09-19T04:10:30;73239.66;;;-142.11;100.00
14800;BME280;7491;57.750;11.970;2023-09-19T04:12:57;73223.38;;;-142.11;100.00
14800;BME280;7491;57.750;11.970;2023-09-19T04:15:24;73245.78;;;-142.11;100.00
14800;BME280;7491;57.750;11.970;2023-09-19T04:17:51;73235.59;;;-142.11;100.00
14800;BME280;7491;57.750;11.970;2023-09-19T04:20:19;73239.66;;;-142.11;100.00
14800;BME280;7491;57.750;11.970;2023-09-19T04:22:48;73229.47;;;-142.11;100.00
14800;BME280;7491;57.750;11.970;2023-09-19T04:25:15;73239.66;;;-142.11;100.00
14800;BME280;7491;57.750;11.970;2023-09-19T04:27:42;73253.91;;;-142.11;100.00
14800;BME280;7491;57.750;11.970;2023-09-19T04:30:10;73237.63;;;-142.11;100.00
14800;BME280;7491;57.750;11.970;2023-09-19T04:32:38;73231.50;;;-142.11;100.00
14800;BME280;7491;57.750;11.970;2023-09-19T04:35:07;73229.47;;;-142.11;100.00
14800;BME280;7491;57.750;11.970;2023-09-19T04:37:37;73231.50;;;-142.11;100.00
14800;BME280;7491;57.750;11.970;2023-09-19T04:40:06;73231.50;;;-142.11;100.00
14800;BME280;7491;57.750;11.970;2023-09-19T04:42:38;73225.41;;;-142.11;100.00
14800;BME280;7491;57.750;11.970;2023-09-19T04:45:06;73253.91;;;-142.11;100.00
14800;BME280;7491;57.750;11.970;2023-09-19T04:47:33;73264.09;;;-142.11;100.00
14800;BME280;7491;57.750;11.970;2023-09-19T04:50:00;73262.06;;;-142.11;100.00
14800;BME280;7491;57.750;11.970;2023-09-19T04:52:26;73284.47;;;-142.11;100.00
14800;BME280;7491;57.750;11.970;2023-09-19T04:54:54;73302.81;;;-142.11;100.00
14800;BME280;7491;57.750;11.970;2023-09-19T04:57:21;73308.91;;;-142.11;100.00
14800;BME280;7491;57.750;11.970;2023-09-19T04:59:51;73321.13;;;-142.11;100.00
14800;BME280;7491;57.750;11.970;2023-09-19T05:02:17;73337.44;;;-142.11;100.00
14800;BME280;7491;57.750;11.970;2023-09-19T05:04:44;73357.78;;;-142.11;100.00
14800;BME280;7491;57.750;11.970;2023-09-19T05:07:11;73351.69;;;-142.11;100.00
14800;BME280;7491;57.750;11.970;2023-09-19T05:09:38;73357.78;;;-142.11;100.00
14800;BME280;7491;57.750;11.970;2023-09-19T05:12:06;73386.31;;;-142.11;100.00
14800;BME280;7491;57.750;11.970;2023-09-19T05:14:36;73380.19;;;-142.11;100.00
14800;BME280;7491;57.750;11.970;2023-09-19T05:17:03;73394.47;;;-142.11;100.00
14800;BME280;7491;57.750;11.970;2023-09-19T05:19:30;73394.47;;;-142.11;100.00
14800;BME280;7491;57.750;11.970;2023-09-19T05:21:57;73406.69;;;-142.11;100.00
14800;BME280;7491;57.750;11.970;2023-09-19T05:24:23;73408.72;;;-142.11;100.00
14800;BME280;7491;57.750;11.970;2023-09-19T05:26:51;73408.72;;;-142.11;100.00
14800;BME280;7491;57.750;11.970;2023-09-19T05:29:20;73420.94;;;-142.11;100.00
14800;BME280;7491;57.750;11.970;2023-09-19T05:31:46;73433.16;;;-142.11;100.00
14800;BME280;7491;57.750;11.970;2023-09-19T05:34:13;73457.59;;;-142.11;100.00
14800;BME280;7491;57.750;11.970;2023-09-19T05:36:40;73441.31;;;-142.11;100.00
14800;BME280;7491;57.750;11.970;2023-09-19T05:39:07;73457.59;;;-142.11;100.00
14800;BME280;7491;57.750;11.970;2023-09-19T05:41:35;73459.63;;;-142.11;100.00
14800;BME280;7491;57.750;11.970;2023-09-19T05:44:02;73457.59;;;-142.11;100.00
14800;BME280;7491;57.750;11.970;2023-09-19T05:46:30;73439.28;;;-142.11;100.00
14800;BME280;7491;57.750;11.970;2023-09-19T05:48:57;73447.41;;;-142.11;100.00
14800;BME280;7491;57.750;11.970;2023-09-19T05:51:24;73477.97;;;-142.11;100.00
14800;BME280;7491;57.750;11.970;2023-09-19T05:53:53;73477.97;;;-142.11;100.00
14800;BME280;7491;57.750;11.970;2023-09-19T05:56:21;73463.72;;;-142.11;100.00
14800;BME280;7491;57.750;11.970;2023-09-19T05:58:48;73475.94;;;-142.11;100.00
14800;BME280;7491;57.750;11.970;2023-09-19T06:01:17;73477.97;;;-142.11;100.00
14800;BME280;7491;57.750;11.970;2023-09-19T06:03:45;73502.41;;;-142.11;100.00
14800;BME280;7491;57.750;11.970;2023-09-19T06:06:12;73504.44;;;-142.11;100.00
14800;BME280;7491;57.750;11.970;2023-09-19T06:08:39;73504.44;;;-142.11;100.00
14800;BME280;7491;57.750;11.970;2023-09-19T06:11:06;73516.69;;;-142.11;100.00
14800;BME280;7491;57.750;11.970;2023-09-19T06:13:34;73516.69;;;-142.11;100.00
14800;BME280;7491;57.750;11.970;2023-09-19T06:16:01;73530.94;;;-142.11;100.00
14800;BME280;7491;57.750;11.970;2023-09-19T06:18:30;73535.00;;;-142.11;100.00
14800;BME280;7491;57.750;11.970;2023-09-19T06:21:00;73549.25;;;-142.11;100.00
14800;BME280;7491;57.750;11.970;2023-09-19T06:23:32;73600.19;;;-142.11;100.00
14800;BME280;7491;57.750;11.970;2023-09-19T06:25:59;73612.41;;;-142.11;100.00
14800;BME280;7491;57.750;11.970;2023-09-19T06:28:26;73651.13;;;-142.11;100.00
14800;BME280;7491;57.750;11.970;2023-09-19T06:30:53;73689.81;;;-142.11;100.00
14800;BME280;7491;57.750;11.970;2023-09-19T06:33:20;73702.03;;;-142.11;100.00
14800;BME280;7491;57.750;11.970;2023-09-19T06:35:48;73687.78;;;-142.11;100.00
14800;BME280;7491;57.750;11.970;2023-09-19T06:38:16;73693.88;;;-142.11;100.00
14800;BME280;7491;57.750;11.970;2023-09-19T06:40:44;73704.06;;;-142.11;100.00
14800;BME280;7491;57.750;11.970;2023-09-19T06:43:11;73710.19;;;-142.11;100.00
14800;BME280;7491;57.750;11.970;2023-09-19T06:45:38;73728.53;;;-142.11;100.00
14800;BME280;7491;57.750;11.970;2023-09-19T06:48:05;73722.41;;;-142.11;100.00
14800;BME280;7491;57.750;11.970;2023-09-19T06:50:32;73708.16;;;-142.11;100.00
14800;BME280;7491;57.750;11.970;2023-09-19T06:53:00;73740.75;;;-142.11;100.00
14800;BME280;7491;57.750;11.970;2023-09-19T06:55:29;73712.22;;;-142.11;100.00
14800;BME280;7491;57.750;11.970;2023-09-19T06:57:56;73700.00;;;-142.11;100.00
14800;BME280;7491;57.750;11.970;2023-09-19T07:00:24;73689.81;;;-142.11;100.00
14800;BME280;7491;57.750;11.970;2023-09-19T07:02:57;73675.56;;;-142.11;100.00
14800;BME280;7491;57.750;11.970;2023-09-19T07:05:26;73669.44;;;-142.11;100.00
14800;BME280;7491;57.750;11.970;2023-09-19T07:07:54;73657.22;;;-142.11;100.00
14800;BME280;7491;57.750;11.970;2023-09-19T07:10:21;73645.00;;;-142.11;100.00
14800;BME280;7491;57.750;11.970;2023-09-19T07:12:55;73647.03;;;-142.11;100.00
14800;BME280;7491;57.750;11.970;2023-09-19T07:15:22;73647.03;;;-142.11;100.00
14800;BME280;7491;57.750;11.970;2023-09-19T07:17:50;73634.81;;;-142.11;100.00
14800;BME280;7491;57.750;11.970;2023-09-19T07:20:17;73618.53;;;-142.11;100.00
14800;BME280;7491;57.750;11.970;2023-09-19T07:22:44;73624.63;;;-142.11;100.00
14800;BME280;7491;57.750;11.970;2023-09-19T07:25:10;73618.53;;;-142.11;100.00
14800;BME280;7491;57.750;11.970;2023-09-19T07:27:39;73606.31;;;-142.11;100.00
14800;BME280;7491;57.750;11.970;2023-09-19T07:30:09;73606.31;;;-142.11;100.00
14800;BME280;7491;57.750;11.970;2023-09-19T07:32:37;73616.47;;;-142.11;100.00
14800;BME280;7491;57.750;11.970;2023-09-19T07:35:05;73606.31;;;-142.11;100.00
14800;BME280;7491;57.750;11.970;2023-09-19T07:37:32;73594.06;;;-142.11;100.00
14800;BME280;7491;57.750;11.970;2023-09-19T07:39:59;73594.06;;;-142.11;100.00
14800;BME280;7491;57.750;11.970;2023-09-19T07:42:26;73587.97;;;-142.11;100.00
14800;BME280;7491;57.750;11.970;2023-09-19T07:44:53;73592.03;;;-142.11;100.00
14800;BME280;7491;57.750;11.970;2023-09-19T07:47:21;73583.88;;;-142.11;100.00
14800;BME280;7491;57.750;11.970;2023-09-19T07:49:47;73587.97;;;-142.11;100.00
14800;BME280;7491;57.750;11.970;2023-09-19T07:52:14;73585.94;;;-142.11;100.00
14800;BME280;7491;57.750;11.970;2023-09-19T07:54:42;73545.19;;;-142.11;100.00
14800;BME280;7491;57.750;11.970;2023-09-19T07:57:09;73547.22;;;-142.11;100.00
14800;BME280;7491;57.750;11.970;2023-09-19T07:59:37;73526.84;;;-142.11;100.00
14800;BME280;7491;57.750;11.970;2023-09-19T08:02:07;73530.94;;;-142.11;100.00
14800;BME280;7491;57.750;11.970;2023-09-19T08:04:42;73563.53;;;-142.11;100.00
14800;BME280;7491;57.750;11.970;2023-09-19T08:07:10;73551.31;;;-142.11;100.00
14800;BME280;7491;57.750;11.970;2023-09-19T08:09:36;73557.41;;;-142.11;100.00
14800;BME280;7491;57.750;11.970;2023-09-19T08:12:04;73543.16;;;-142.11;100.00
14800;BME280;7491;57.750;11.970;2023-09-19T08:14:32;73555.38;;;-142.11;100.00
14800;BME280;7491;57.750;11.970;2023-09-19T08:16:59;73565.56;;;-142.11;100.00
14800;BME280;7491;57.750;11.970;2023-09-19T08:19:26;73565.56;;;-142.11;100.00
14800;BME280;7491;57.750;11.970;2023-09-19T08:21:57;73549.25;;;-142.11;100.00
14800;BME280;7491;57.750;11.970;2023-09-19T08:24:25;73537.03;;;-142.11;100.00
14800;BME280;7491;57.750;11.970;2023-09-19T08:26:53;73530.94;;;-142.11;100.00
14800;BME280;7491;57.750;11.970;2023-09-19T08:29:21;73530.94;;;-142.11;100.00
14800;BME280;7491;57.750;11.970;2023-09-19T08:31:53;73543.16;;;-142.11;100.00
14800;BME280;7491;57.750;11.970;2023-09-19T08:34:21;73575.75;;;-142.11;100.00
14800;BME280;7491;57.750;11.970;2023-09-19T08:36:50;73577.78;;;-142.11;100.00
14800;BME280;7491;57.750;11.970;2023-09-19T08:39:19;73596.13;;;-142.11;100.00
14800;BME280;7491;57.750;11.970;2023-09-19T08:41:46;73598.16;;;-142.11;100.00
14800;BME280;7491;57.750;11.970;2023-09-19T08:44:13;73618.53;;;-142.11;100.00
14800;BME280;7491;57.750;11.970;2023-09-19T08:46:41;73649.06;;;-142.11;100.00
14800;BME280;7491;57.750;11.970;2023-09-19T08:49:16;73649.06;;;-142.11;100.00
14800;BME280;7491;57.750;11.970;2023-09-19T08:51:54;73663.34;;;-142.11;100.00
14800;BME280;7491;57.750;11.970;2023-09-19T08:54:29;73671.47;;;-142.11;100.00
14800;BME280;7491;57.750;11.970;2023-09-19T08:57:00;73683.72;;;-142.11;100.00
14800;BME280;7491;57.750;11.970;2023-09-19T08:59:33;73663.34;;;-142.11;100.00
14800;BME280;7491;57.750;11.970;2023-09-19T09:02:04;73673.53;;;-142.11;100.00
14800;BME280;7491;57.750;11.970;2023-09-19T09:04:38;73657.22;;;-142.11;100.00
14800;BME280;7491;57.750;11.970;2023-09-19T09:07:10;73671.47;;;-142.11;100.00
14800;BME280;7491;57.750;11.970;2023-09-19T09:09:38;73657.22;;;-142.11;100.00
14800;BME280;7491;57.750;11.970;2023-09-19T09:12:08;73651.13;;;-142.11;100.00
14800;BME280;7491;57.750;11.970;2023-09-19T09:14:38;73665.38;;;-142.11;100.00
14800;BME280;7491;57.750;11.970;2023-09-19T09:17:04;73657.22;;;-142.11;100.00
14800;BME280;7491;57.750;11.970;2023-09-19T09:19:32;73661.31;;;-142.11;100.00
14800;BME280;7491;57.750;11.970;2023-09-19T09:22:09;73681.66;;;-142.11;100.00
14800;BME280;7491;57.750;11.970;2023-09-19T09:24:36;73673.53;;;-142.11;100.00
14800;BME280;7491;57.750;11.970;2023-09-19T09:27:06;73679.63;;;-142.11;100.00
14800;BME280;7491;57.750;11.970;2023-09-19T09:29:44;73673.53;;;-142.11;100.00
14800;BME280;7491;57.750;11.970;2023-09-19T09:32:22;73702.03;;;-142.11;100.00
14800;BME280;7491;57.750;11.970;2023-09-19T09:34:50;73677.59;;;-142.11;100.00
14800;BME280;7491;57.750;11.970;2023-09-19T09:37:18;73679.63;;;-142.11;100.00
14800;BME280;7491;57.750;11.970;2023-09-19T09:39:49;73691.84;;;-142.11;100.00
14800;BME280;7491;57.750;11.970;2023-09-19T09:42:35;73716.28;;;-142.11;100.00
14800;BME280;7491;57.750;11.970;2023-09-19T09:45:14;73714.25;;;-142.11;100.00
14800;BME280;7491;57.750;11.970;2023-09-19T09:47:42;73710.19;;;-142.11;100.00
14800;BME280;7491;57.750;11.970;2023-09-19T09:50:23;73693.88;;;-142.11;100.00
14800;BME280;7491;57.750;11.970;2023-09-19T09:52:54;73728.53;;;-142.11;100.00
14800;BME280;7491;57.750;11.970;2023-09-19T09:55:26;73697.97;;;-142.11;100.00
14800;BME280;7491;57.750;11.970;2023-09-19T09:58:15;73720.38;;;-142.11;100.00
14800;BME280;7491;57.750;11.970;2023-09-19T10:00:52;73732.59;;;-142.11;100.00
14800;BME280;7491;57.750;11.970;2023-09-19T10:03:31;73752.97;;;-142.11;100.00
14800;BME280;7491;57.750;11.970;2023-09-19T10:06:00;73775.38;;;-142.11;100.00
14800;BME280;7491;57.750;11.970;2023-09-19T10:08:34;73789.63;;;-142.11;100.00
14800;BME280;7491;57.750;11.970;2023-09-19T10:11:15;73793.72;;;-142.11;100.00
14800;BME280;7491;57.750;11.970;2023-09-19T10:13:44;73834.44;;;-142.11;100.00
14800;BME280;7491;57.750;11.970;2023-09-19T10:16:13;73852.78;;;-142.11;100.00
14800;BME280;7491;57.750;11.970;2023-09-19T10:18:45;73836.50;;;-142.11;100.00
14800;BME280;7491;57.750;11.970;2023-09-19T10:21:15;73797.78;;;-142.11;100.00
14800;BME280;7491;57.750;11.970;2023-09-19T10:23:48;73789.63;;;-142.11;100.00
14800;BME280;7491;57.750;11.970;2023-09-19T10:26:18;73791.66;;;-142.11;100.00
14800;BME280;7491;57.750;11.970;2023-09-19T10:28:49;73785.56;;;-142.11;100.00
14800;BME280;7491;57.750;11.970;2023-09-19T10:31:18;73787.59;;;-142.11;100.00
14800;BME280;7491;57.750;11.970;2023-09-19T10:33:47;73775.38;;;-142.11;100.00
14800;BME280;7491;57.750;11.970;2023-09-19T10:36:16;73763.16;;;-142.11;100.00
14800;BME280;7491;57.750;11.970;2023-09-19T10:38:45;73746.84;;;-142.11;100.00
14800;BME280;7491;57.750;11.970;2023-09-19T10:41:15;73734.63;;;-142.11;100.00
14800;BME280;7491;57.750;11.970;2023-09-19T10:43:43;73718.34;;;-142.11;100.00
14800;BME280;7491;57.750;11.970;2023-09-19T10:46:14;73748.88;;;-142.11;100.00
14800;BME280;7491;57.750;11.970;2023-09-19T10:48:41;73726.47;;;-142.11;100.00
14800;BME280;7491;57.750;11.970;2023-09-19T10:51:10;73728.53;;;-142.11;100.00
14800;BME280;7491;57.750;11.970;2023-09-19T10:53:48;73716.28;;;-142.11;100.00
14800;BME280;7491;57.750;11.970;2023-09-19T10:56:21;73700.00;;;-142.11;100.00
14800;BME280;7491;57.750;11.970;2023-09-19T10:58:51;73706.13;;;-142.11;100.00
14800;BME280;7491;57.750;11.970;2023-09-19T11:01:20;73728.53;;;-142.11;100.00
14800;BME280;7491;57.750;11.970;2023-09-19T11:03:47;73759.06;;;-142.11;100.00
14800;BME280;7491;57.750;11.970;2023-09-19T11:06:19;73836.50;;;-142.11;100.00
14800;BME280;7491;57.750;11.970;2023-09-19T11:08:59;73832.41;;;-142.11;100.00
14800;BME280;7491;57.750;11.970;2023-09-19T11:11:49;73830.38;;;-142.11;100.00
14800;BME280;7491;57.750;11.970;2023-09-19T11:14:39;73824.25;;;-142.11;100.00
14800;BME280;7491;57.750;11.970;2023-09-19T11:17:35;73812.03;;;-142.11;100.00
14800;BME280;7491;57.750;11.970;2023-09-19T11:20:22;73777.41;;;-142.11;100.00
14800;BME280;7491;57.750;11.970;2023-09-19T11:23:22;73763.16;;;-142.11;100.00
14800;BME280;7491;57.750;11.970;2023-09-19T11:25:51;73775.38;;;-142.11;100.00
14800;BME280;7491;57.750;11.970;2023-09-19T11:28:32;73767.22;;;-142.11;100.00
14800;BME280;7491;57.750;11.970;2023-09-19T11:40:46;73706.13;;;-142.11;100.00
14800;BME280;7491;57.750;11.970;2023-09-19T11:43:32;73689.81;;;-142.11;100.00
14800;BME280;7491;57.750;11.970;2023-09-19T11:46:02;73685.75;;;-142.11;100.00
14800;BME280;7491;57.750;11.970;2023-09-19T11:48:31;73691.84;;;-142.11;100.00
14800;BME280;7491;57.750;11.970;2023-09-19T11:51:00;73687.78;;;-142.11;100.00
14800;BME280;7491;57.750;11.970;2023-09-19T11:53:33;73712.22;;;-142.11;100.00
14800;BME280;7491;57.750;11.970;2023-09-19T11:56:05;73738.72;;;-142.11;100.00
14800;BME280;7491;57.750;11.970;2023-09-19T11:58:37;73750.94;;;-142.11;100.00
14800;BME280;7491;57.750;11.970;2023-09-19T12:01:05;73744.81;;;-142.11;100.00
14800;BME280;7491;57.750;11.970;2023-09-19T12:03:42;73759.06;;;-142.11;100.00
14800;BME280;7491;57.750;11.970;2023-09-19T12:06:12;73769.25;;;-142.11;100.00
14800;BME280;7491;57.750;11.970;2023-09-19T12:08:40;73755.00;;;-142.11;100.00
14800;BME280;7491;57.750;11.970;2023-09-19T12:11:13;73771.31;;;-142.11;100.00
14800;BME280;7491;57.750;11.970;2023-09-19T12:13:43;73752.97;;;-142.11;100.00
14800;BME280;7491;57.750;11.970;2023-09-19T12:16:13;73761.13;;;-142.11;100.00
14800;BME280;7491;57.750;11.970;2023-09-19T12:18:41;73767.22;;;-142.11;100.00
14800;BME280;7491;57.750;11.970;2023-09-19T12:21:24;73738.72;;;-142.11;100.00
14800;BME280;7491;57.750;11.970;2023-09-19T12:24:05;73761.13;;;-142.11;100.00
14800;BME280;7491;57.750;11.970;2023-09-19T12:26:42;73773.34;;;-142.11;100.00
14800;BME280;7491;57.750;11.970;2023-09-19T12:29:14;73775.38;;;-142.11;100.00
14800;BME280;7491;57.750;11.970;2023-09-19T12:31:53;73783.53;;;-142.11;100.00
14800;BME280;7491;57.750;11.970;2023-09-19T12:34:24;73765.19;;;-142.11;100.00
14800;BME280;7491;57.750;11.970;2023-09-19T12:37:09;73785.56;;;-142.11;100.00
14800;BME280;7491;57.750;11.970;2023-09-19T12:39:42;73763.16;;;-142.11;100.00
14800;BME280;7491;57.750;11.970;2023-09-19T12:42:13;73765.19;;;-142.11;100.00
14800;BME280;7491;57.750;11.970;2023-09-19T12:44:41;73771.31;;;-142.11;100.00
14800;BME280;7491;57.750;11.970;2023-09-19T12:47:11;73789.63;;;-142.11;100.00
14800;BME280;7491;57.750;11.970;2023-09-19T12:50:10;73775.38;;;-142.11;100.00
14800;BME280;7491;57.750;11.970;2023-09-19T12:52:43;73767.22;;;-142.11;100.00
14800;BME280;7491;57.750;11.970;2023-09-19T12:55:22;73763.16;;;-142.11;100.00